createdAt,value
2023-03-04T00:01:47.141Z,35.77
2023-03-04T00:04:13.687Z,34.53
2023-03-04T00:06:40.234Z,39.87
2023-03-04T00:09:06.770Z,38.43
2023-03-04T00:11:33.248Z,43.47
2023-03-04T00:13:59.836Z,34.53
2023-03-04T00:16:27.357Z,35.40
2023-03-04T00:18:53.923Z,30.97
2023-03-04T00:21:20.710Z,36.20
2023-03-04T00:23:47.225Z,34.00
2023-03-04T00:26:13.812Z,47.00
2023-03-04T00:28:40.333Z,37.23
2023-03-04T00:31:06.861Z,31.37
2023-03-04T00:33:33.342Z,36.93
2023-03-04T00:35:59.853Z,43.43
2023-03-04T00:38:26.481Z,39.67
2023-03-04T00:40:53.027Z,38.23
2023-03-04T00:43:19.694Z,24.83
2023-03-04T00:45:46.183Z,34.60
2023-03-04T00:48:12.708Z,31.23
2023-03-04T00:50:39.190Z,38.10
2023-03-04T00:53:05.680Z,39.87
2023-03-04T00:55:32.180Z,36.83
2023-03-04T00:57:58.694Z,32.13
2023-03-04T01:00:25.202Z,30.83
2023-03-04T01:02:51.734Z,30.80
2023-03-04T01:05:18.302Z,34.63
2023-03-04T01:07:44.887Z,35.20
2023-03-04T01:10:11.378Z,34.43
2023-03-04T01:12:37.970Z,35.57
2023-03-04T01:15:04.443Z,40.13
2023-03-04T01:17:30.967Z,40.97
2023-03-04T01:19:57.502Z,28.47
2023-03-04T01:22:23.982Z,43.33
2023-03-04T01:24:50.519Z,33.57
2023-03-04T01:27:17.026Z,28.33
2023-03-04T01:29:43.524Z,32.07
2023-03-04T01:32:10.080Z,24.23
2023-03-04T01:34:36.619Z,25.53
2023-03-04T01:37:03.137Z,28.47
2023-03-04T01:39:29.609Z,32.37
2023-03-04T01:41:56.079Z,24.47
2023-03-04T01:44:22.576Z,36.13
2023-03-04T01:46:49.088Z,23.93
2023-03-04T01:49:16.930Z,26.77
2023-03-04T01:51:43.520Z,25.17
2023-03-04T01:54:10.022Z,19.80
2023-03-04T01:56:36.540Z,24.20
2023-03-04T01:59:03.030Z,36.03
2023-03-04T02:01:29.560Z,27.40
2023-03-04T02:03:56.102Z,34.27
2023-03-04T02:06:22.610Z,25.63
2023-03-04T02:08:49.145Z,20.60
2023-03-04T02:11:15.623Z,35.83
2023-03-04T02:13:42.140Z,23.50
2023-03-04T02:16:08.679Z,22.87
2023-03-04T02:18:35.222Z,23.57
2023-03-04T02:21:01.721Z,29.97
2023-03-04T02:23:28.195Z,29.10
2023-03-04T02:25:54.700Z,25.33
2023-03-04T02:28:21.270Z,28.80
2023-03-04T02:30:47.785Z,25.03
2023-03-04T02:33:14.309Z,24.03
2023-03-04T02:35:41.883Z,24.63
2023-03-04T02:38:08.429Z,21.80
2023-03-04T02:40:34.897Z,32.27
2023-03-04T02:43:01.557Z,37.60
2023-03-04T02:45:28.084Z,29.97
2023-03-04T02:47:54.657Z,30.60
2023-03-04T02:50:21.438Z,21.00
2023-03-04T02:52:47.965Z,17.90
2023-03-04T02:55:14.445Z,17.53
2023-03-04T02:57:40.976Z,15.40
2023-03-04T03:00:07.470Z,21.00
2023-03-04T03:02:34.074Z,25.03
2023-03-04T03:05:00.615Z,25.07
2023-03-04T03:07:27.160Z,20.63
2023-03-04T03:09:53.689Z,22.30
2023-03-04T03:12:20.350Z,29.97
2023-03-04T03:14:46.825Z,37.33
2023-03-04T03:17:13.379Z,23.20
2023-03-04T03:19:39.851Z,22.77
2023-03-04T03:22:06.348Z,25.03
2023-03-04T03:24:32.838Z,18.40
2023-03-04T03:26:59.405Z,23.67
2023-03-04T03:29:25.934Z,19.80
2023-03-04T03:31:52.540Z,32.50
2023-03-04T03:34:19.159Z,33.47
2023-03-04T03:36:45.727Z,32.10
2023-03-04T03:39:12.233Z,18.03
2023-03-04T03:41:38.705Z,22.47
2023-03-04T03:44:05.245Z,19.13
2023-03-04T03:46:31.764Z,21.27
2023-03-04T03:48:58.258Z,22.23
2023-03-04T03:51:24.749Z,20.73
2023-03-04T03:53:51.229Z,15.40
2023-03-04T03:56:17.728Z,14.13
2023-03-04T03:58:44.298Z,16.00
2023-03-04T04:01:10.793Z,14.60
2023-03-04T04:03:37.356Z,20.73
2023-03-04T04:06:03.824Z,17.37
2023-03-04T04:08:30.321Z,13.57
2023-03-04T04:10:56.851Z,13.43
2023-03-04T04:13:23.326Z,19.80
2023-03-04T04:15:49.818Z,24.47
2023-03-04T04:18:16.360Z,27.53
2023-03-04T04:20:42.861Z,12.50
2023-03-04T04:23:09.413Z,20.20
2023-03-04T04:25:36.007Z,16.23
2023-03-04T04:28:02.618Z,12.87
2023-03-04T04:30:29.174Z,20.07
2023-03-04T04:32:55.796Z,14.83
2023-03-04T04:35:22.375Z,22.40
2023-03-04T04:37:48.873Z,10.37
2023-03-04T04:40:15.503Z,41.13
2023-03-04T04:42:42.011Z,20.83
2023-03-04T04:45:08.530Z,8.27
2023-03-04T04:47:35.233Z,18.87
2023-03-04T04:50:01.722Z,22.60
2023-03-04T04:52:28.200Z,24.80
2023-03-04T04:54:54.680Z,23.17
2023-03-04T04:57:21.153Z,19.50
2023-03-04T04:59:48.021Z,20.17
2023-03-04T05:02:14.576Z,23.37
2023-03-04T05:04:41.080Z,16.50
2023-03-04T05:07:07.560Z,19.27
2023-03-04T05:09:34.045Z,29.77
2023-03-04T05:12:00.605Z,25.87
2023-03-04T05:14:27.084Z,25.00
2023-03-04T05:16:53.559Z,12.93
2023-03-04T05:19:20.046Z,8.47
2023-03-04T05:21:46.547Z,12.60
2023-03-04T05:24:13.107Z,7.37
2023-03-04T05:26:39.589Z,17.23
2023-03-04T05:29:06.091Z,13.50
2023-03-04T05:31:32.607Z,13.03
2023-03-04T05:33:59.078Z,7.50
2023-03-04T05:36:25.636Z,16.57
2023-03-04T05:38:52.114Z,35.97
2023-03-04T05:41:22.475Z,11.80
2023-03-04T05:43:48.977Z,28.67
2023-03-04T05:46:15.596Z,10.27
2023-03-04T05:48:42.131Z,12.63
2023-03-04T05:51:08.676Z,14.83
2023-03-04T05:53:36.848Z,20.93
2023-03-04T05:58:37.144Z,13.43
2023-03-04T06:01:03.658Z,19.23
2023-03-04T06:03:30.128Z,19.70
2023-03-04T06:05:56.647Z,11.37
2023-03-04T06:08:23.132Z,18.93
2023-03-04T06:10:49.647Z,16.53
2023-03-04T06:13:16.168Z,26.50
2023-03-04T06:15:42.942Z,7.37
2023-03-04T06:18:09.507Z,13.17
2023-03-04T06:20:36.001Z,20.73
2023-03-04T06:23:02.466Z,16.63
2023-03-04T06:25:29.620Z,13.73
2023-03-04T06:27:56.104Z,5.10
2023-03-04T06:30:22.617Z,5.30
2023-03-04T06:32:49.108Z,16.20
2023-03-04T06:35:15.644Z,7.87
2023-03-04T06:37:42.188Z,11.43
2023-03-04T06:40:08.711Z,8.63
2023-03-04T06:42:35.256Z,10.40
2023-03-04T06:45:01.727Z,7.93
2023-03-04T06:47:28.266Z,13.53
2023-03-04T06:49:54.770Z,10.17
2023-03-04T06:52:21.290Z,10.07
2023-03-04T06:54:47.794Z,29.13
2023-03-04T06:57:14.303Z,6.20
2023-03-04T06:59:40.770Z,16.70
2023-03-04T07:02:07.314Z,8.63
2023-03-04T07:04:33.808Z,13.10
2023-03-04T07:07:00.421Z,14.70
2023-03-04T07:09:26.907Z,10.33
2023-03-04T07:11:53.426Z,14.53
2023-03-04T07:14:20.248Z,10.33
2023-03-04T07:16:47.646Z,13.80
2023-03-04T07:19:14.169Z,27.93
2023-03-04T07:21:40.653Z,12.33
2023-03-04T07:24:07.119Z,10.10
2023-03-04T07:26:33.783Z,5.67
2023-03-04T07:29:00.270Z,10.60
2023-03-04T07:31:28.361Z,12.00
2023-03-04T07:33:54.847Z,8.30
2023-03-04T07:36:21.600Z,8.30
2023-03-04T07:38:48.156Z,8.63
2023-03-04T07:41:14.665Z,22.23
2023-03-04T07:43:41.146Z,13.70
2023-03-04T07:46:07.712Z,9.50
2023-03-04T07:48:36.073Z,11.00
2023-03-04T07:51:02.589Z,12.13
2023-03-04T07:53:29.103Z,18.87
2023-03-04T07:55:55.686Z,29.50
2023-03-04T07:58:22.217Z,13.70
2023-03-04T08:00:48.698Z,12.47
2023-03-04T08:03:15.246Z,10.23
2023-03-04T08:05:41.720Z,27.93
2023-03-04T08:08:08.363Z,7.17
2023-03-04T08:10:34.860Z,6.10
2023-03-04T08:13:01.398Z,15.53
2023-03-04T08:15:27.882Z,11.53
2023-03-04T08:17:54.361Z,22.67
2023-03-04T08:20:20.838Z,22.90
2023-03-04T08:22:47.338Z,11.13
2023-03-04T08:25:13.955Z,21.23
2023-03-04T08:27:42.926Z,11.40
2023-03-04T08:30:09.411Z,9.37
2023-03-04T08:32:36.028Z,4.50
2023-03-04T08:35:02.625Z,27.33
2023-03-04T08:37:29.153Z,9.87
2023-03-04T08:39:55.665Z,8.87
2023-03-04T08:42:22.568Z,7.60
2023-03-04T08:44:49.082Z,5.20
2023-03-04T08:47:15.554Z,7.47
2023-03-04T08:49:42.091Z,7.13
2023-03-04T08:52:08.854Z,7.40
2023-03-04T08:54:35.348Z,12.03
2023-03-04T08:57:02.977Z,6.17
2023-03-04T08:59:29.474Z,16.87
2023-03-04T09:01:55.983Z,5.93
2023-03-04T09:04:22.545Z,7.03
2023-03-04T09:06:49.054Z,8.30
2023-03-04T09:09:15.582Z,11.57
2023-03-04T09:11:42.088Z,8.00
2023-03-04T09:14:08.558Z,17.43
2023-03-04T09:16:35.113Z,11.20
2023-03-04T09:19:01.640Z,4.60
2023-03-04T09:21:28.103Z,6.67
2023-03-04T09:23:54.608Z,13.13
2023-03-04T09:26:21.103Z,10.30
2023-03-04T09:28:47.702Z,9.97
2023-03-04T09:31:14.272Z,4.80
2023-03-04T09:33:42.919Z,5.20
2023-03-04T09:36:09.398Z,7.73
2023-03-04T09:38:35.878Z,6.73
2023-03-04T09:41:02.420Z,5.90
2023-03-04T09:43:29.899Z,9.00
2023-03-04T09:45:56.445Z,9.20
2023-03-04T09:48:23.372Z,3.77
2023-03-04T09:50:49.880Z,8.67
2023-03-04T09:53:16.387Z,14.93
2023-03-04T09:55:42.980Z,7.40
2023-03-04T09:58:09.446Z,6.60
2023-03-04T10:00:36.024Z,11.03
2023-03-04T10:03:02.569Z,4.63
2023-03-04T10:05:29.116Z,5.20
2023-03-04T10:07:55.595Z,4.57
2023-03-04T10:10:22.132Z,7.97
2023-03-04T10:12:48.669Z,15.33
2023-03-04T10:15:15.161Z,8.20
2023-03-04T10:17:42.474Z,11.40
2023-03-04T10:20:09.012Z,8.07
2023-03-04T10:22:35.534Z,8.83
2023-03-04T10:25:02.054Z,8.60
2023-03-04T10:27:30.053Z,7.80
2023-03-04T10:29:56.632Z,9.73
2023-03-04T10:32:23.187Z,11.70
2023-03-04T10:34:49.744Z,20.30
2023-03-04T10:37:16.264Z,18.40
2023-03-04T10:39:42.851Z,12.60
2023-03-04T10:42:09.581Z,15.50
2023-03-04T10:44:38.034Z,13.00
2023-03-04T10:47:04.556Z,6.20
2023-03-04T10:49:31.164Z,5.30
2023-03-04T10:51:57.752Z,5.53
2023-03-04T10:54:24.490Z,15.20
2023-03-04T10:56:50.975Z,9.00
2023-03-04T10:59:17.497Z,7.57
2023-03-04T11:01:44.001Z,6.63
2023-03-04T11:04:10.582Z,6.90
2023-03-04T11:06:37.200Z,14.73
2023-03-04T11:09:03.725Z,11.60
2023-03-04T11:11:31.163Z,15.07
2023-03-04T11:13:57.802Z,8.90
2023-03-04T11:16:24.349Z,12.30
2023-03-04T11:18:50.888Z,7.23
2023-03-04T11:21:17.359Z,3.70
2023-03-04T11:23:43.863Z,6.03
2023-03-04T11:26:11.254Z,6.00
2023-03-04T11:28:37.736Z,5.40
2023-03-04T11:31:04.299Z,5.67
2023-03-04T11:33:30.822Z,4.00
2023-03-04T11:35:58.505Z,7.60
2023-03-04T11:38:25.076Z,7.10
2023-03-04T11:40:51.642Z,7.90
2023-03-04T11:43:18.246Z,12.83
2023-03-04T11:45:44.778Z,21.67
2023-03-04T11:48:11.346Z,8.10
2023-03-04T11:50:39.072Z,13.13
2023-03-04T11:53:05.691Z,5.07
2023-03-04T11:55:32.337Z,6.87
2023-03-04T11:57:58.825Z,6.70
2023-03-04T12:02:53.132Z,13.83
2023-03-04T12:05:19.604Z,7.57
2023-03-04T12:07:46.200Z,9.83
2023-03-04T12:10:12.826Z,5.63
2023-03-04T12:12:39.375Z,5.63
2023-03-04T12:15:08.002Z,9.63
2023-03-04T12:17:34.504Z,6.03
2023-03-04T12:20:01.097Z,13.93
2023-03-04T12:22:27.558Z,10.13
2023-03-04T12:24:54.037Z,6.50
2023-03-04T12:27:20.508Z,9.63
2023-03-04T12:29:47.044Z,6.90
2023-03-04T12:32:13.557Z,5.80
2023-03-04T12:34:40.050Z,10.20
2023-03-04T12:37:07.734Z,8.23
2023-03-04T12:39:34.451Z,7.60
2023-03-04T12:42:00.994Z,9.10
2023-03-04T12:44:27.494Z,7.57
2023-03-04T12:46:53.994Z,8.30
2023-03-04T12:49:20.518Z,12.27
2023-03-04T12:51:46.994Z,7.67
2023-03-04T12:54:13.450Z,9.50
2023-03-04T12:56:40.024Z,8.10
2023-03-04T12:59:06.481Z,11.00
2023-03-04T13:01:32.930Z,14.43
2023-03-04T13:03:59.658Z,10.20
2023-03-04T13:06:26.148Z,8.10
2023-03-04T13:08:52.848Z,12.90
2023-03-04T13:11:19.341Z,8.57
2023-03-04T13:13:45.866Z,15.63
2023-03-04T13:16:12.395Z,31.50
2023-03-04T13:18:39.379Z,7.60
2023-03-04T13:21:05.947Z,10.40
2023-03-04T13:23:32.409Z,15.83
2023-03-04T13:25:58.939Z,15.33
2023-03-04T13:28:25.527Z,8.40
2023-03-04T13:30:52.067Z,9.10
2023-03-04T13:33:18.628Z,13.10
2023-03-04T13:35:45.193Z,7.23
2023-03-04T13:38:11.663Z,8.90
2023-03-04T13:40:38.280Z,8.90
2023-03-04T13:43:04.777Z,9.83
2023-03-04T13:45:31.465Z,13.20
2023-03-04T13:47:57.957Z,8.30
2023-03-04T13:50:24.427Z,5.03
2023-03-04T13:52:50.958Z,4.93
2023-03-04T13:55:17.430Z,8.97
2023-03-04T13:57:43.940Z,4.63
2023-03-04T14:00:10.417Z,6.30
2023-03-04T14:02:36.892Z,5.90
2023-03-04T14:05:03.720Z,10.20
2023-03-04T14:07:30.211Z,7.30
2023-03-04T14:09:56.750Z,13.90
2023-03-04T14:12:23.300Z,7.87
2023-03-04T14:14:49.922Z,9.07
2023-03-04T14:17:16.416Z,9.37
2023-03-04T14:19:42.908Z,9.07
2023-03-04T14:22:09.429Z,11.00
2023-03-04T14:24:35.926Z,13.00
2023-03-04T14:27:02.523Z,10.17
2023-03-04T14:29:32.098Z,14.33
2023-03-04T14:31:58.724Z,12.10
2023-03-04T14:34:25.287Z,11.27
2023-03-04T14:36:51.790Z,9.40
2023-03-04T14:39:18.274Z,10.87
2023-03-04T14:41:44.778Z,15.20
2023-03-04T14:44:11.255Z,10.43
2023-03-04T14:46:40.311Z,7.10
2023-03-04T14:49:07.462Z,5.53
2023-03-04T14:51:33.946Z,7.30
2023-03-04T14:54:00.489Z,5.87
2023-03-04T14:56:26.960Z,7.10
2023-03-04T14:58:53.453Z,5.33
2023-03-04T15:01:20.049Z,5.63
2023-03-04T15:03:46.599Z,6.17
2023-03-04T15:06:13.080Z,6.03
2023-03-04T15:08:39.571Z,5.33
2023-03-04T15:11:06.090Z,8.83
2023-03-04T15:13:32.547Z,3.33
2023-03-04T15:15:59.042Z,11.20
2023-03-04T15:18:26.213Z,8.73
2023-03-04T15:20:52.827Z,8.27
2023-03-04T15:23:19.418Z,15.70
2023-03-04T15:25:45.913Z,12.57
2023-03-04T15:28:12.396Z,10.53
2023-03-04T15:30:38.925Z,11.00
2023-03-04T15:33:05.390Z,5.73
2023-03-04T15:35:32.063Z,7.70
2023-03-04T15:37:58.598Z,9.60
2023-03-04T15:40:25.268Z,12.30
2023-03-04T15:42:51.771Z,8.77
2023-03-04T15:45:18.258Z,10.80
2023-03-04T15:47:44.918Z,4.37
2023-03-04T15:50:11.469Z,9.40
2023-03-04T15:52:39.554Z,5.57
2023-03-04T15:55:06.046Z,14.10
2023-03-04T15:57:32.549Z,7.10
2023-03-04T15:59:59.069Z,11.00
2023-03-04T16:02:27.080Z,13.23
2023-03-04T16:04:53.558Z,6.47
2023-03-04T16:07:20.066Z,4.57
2023-03-04T16:09:46.530Z,14.53
2023-03-04T16:12:13.080Z,10.47
2023-03-04T16:14:39.585Z,5.73
2023-03-04T16:17:06.089Z,6.20
2023-03-04T16:19:32.606Z,8.93
2023-03-04T16:21:59.231Z,7.23
2023-03-04T16:24:25.802Z,5.53
2023-03-04T16:26:52.772Z,6.03
2023-03-04T16:29:19.271Z,7.00
2023-03-04T16:31:45.824Z,10.07
2023-03-04T16:34:12.329Z,12.67
2023-03-04T16:36:39.061Z,4.73
2023-03-04T16:39:05.572Z,5.47
2023-03-04T16:41:32.135Z,12.43
2023-03-04T16:43:58.745Z,9.10
2023-03-04T16:46:25.405Z,10.50
2023-03-04T16:48:51.939Z,15.10
2023-03-04T16:51:18.540Z,3.70
2023-03-04T16:53:45.317Z,18.43
2023-03-04T16:56:11.819Z,11.23
2023-03-04T16:58:38.283Z,13.50
2023-03-04T17:01:04.844Z,21.70
2023-03-04T17:03:31.298Z,8.60
2023-03-04T17:05:57.762Z,12.90
2023-03-04T17:08:24.297Z,7.57
2023-03-04T17:10:50.803Z,15.83
2023-03-04T17:13:17.338Z,10.00
2023-03-04T17:15:45.344Z,15.10
2023-03-04T17:18:11.942Z,12.90
2023-03-04T17:20:38.436Z,11.73
2023-03-04T17:23:04.921Z,16.87
2023-03-04T17:25:31.488Z,2.80
2023-03-04T17:27:58.089Z,13.30
2023-03-04T17:30:24.617Z,13.87
2023-03-04T17:32:51.089Z,5.37
2023-03-04T17:35:17.550Z,5.23
2023-03-04T17:37:44.091Z,7.13
2023-03-04T17:40:14.331Z,6.77
2023-03-04T17:42:41.130Z,10.40
2023-03-04T17:45:07.685Z,13.97
2023-03-04T17:47:36.114Z,3.83
2023-03-04T17:50:02.701Z,19.73
2023-03-04T17:52:29.180Z,6.80
2023-03-04T17:54:55.722Z,18.80
2023-03-04T17:57:22.270Z,8.70
2023-03-04T18:02:23.723Z,8.17
2023-03-04T18:04:50.853Z,14.10
2023-03-04T18:07:17.394Z,7.37
2023-03-04T18:09:44.386Z,7.60
2023-03-04T18:12:10.896Z,20.60
2023-03-04T18:14:37.385Z,10.30
2023-03-04T18:17:03.971Z,6.27
2023-03-04T18:19:30.464Z,9.67
2023-03-04T18:21:57.090Z,13.20
2023-03-04T18:24:23.580Z,13.00
2023-03-04T18:26:50.267Z,5.37
2023-03-04T18:29:16.787Z,5.77
2023-03-04T18:31:43.367Z,17.27
2023-03-04T18:34:09.918Z,10.00
2023-03-04T18:36:36.414Z,9.60
2023-03-04T18:39:05.173Z,6.63
2023-03-04T18:41:31.705Z,7.37
2023-03-04T18:43:58.194Z,7.10
2023-03-04T18:46:24.677Z,11.77
2023-03-04T18:48:51.176Z,8.23
2023-03-04T18:51:17.932Z,15.33
2023-03-04T18:53:44.482Z,13.17
2023-03-04T18:56:12.405Z,7.50
2023-03-04T18:58:39.038Z,9.40
2023-03-04T19:01:05.590Z,15.27
2023-03-04T19:03:32.197Z,9.53
2023-03-04T19:05:58.773Z,7.43
2023-03-04T19:08:25.285Z,17.07
2023-03-04T19:10:51.823Z,17.73
2023-03-04T19:13:18.524Z,9.70
2023-03-04T19:15:45.077Z,7.00
2023-03-04T19:18:11.648Z,20.10
2023-03-04T19:20:38.099Z,3.57
2023-03-04T19:23:05.556Z,20.43
2023-03-04T19:25:32.029Z,16.00
2023-03-04T19:27:58.588Z,2.50
2023-03-04T19:30:25.156Z,3.93
2023-03-04T19:32:51.787Z,1.47
2023-03-04T19:35:18.380Z,10.27
2023-03-04T19:37:45.018Z,6.40
2023-03-04T19:40:11.539Z,7.80
2023-03-04T19:42:38.147Z,8.93
2023-03-04T19:45:09.345Z,11.33
2023-03-04T19:47:36.277Z,9.27
2023-03-04T19:50:02.793Z,10.63
2023-03-04T19:52:29.328Z,1.60
2023-03-04T19:54:55.871Z,13.73
2023-03-04T19:57:22.347Z,6.37
2023-03-04T19:59:48.860Z,8.70
2023-03-04T20:02:15.328Z,5.33
2023-03-04T20:04:42.508Z,3.53
2023-03-04T20:07:09.081Z,6.37
2023-03-04T20:09:38.137Z,5.77
2023-03-04T20:12:04.605Z,4.93
2023-03-04T20:14:31.084Z,7.80
2023-03-04T20:16:58.656Z,7.20
2023-03-04T20:19:25.203Z,5.03
2023-03-04T20:21:51.775Z,3.23
2023-03-04T20:24:19.880Z,7.00
2023-03-04T20:26:46.355Z,4.93
2023-03-04T20:29:12.867Z,8.50
2023-03-04T20:31:39.477Z,4.53
2023-03-04T20:34:06.009Z,1.50
2023-03-04T20:36:32.691Z,3.43
2023-03-04T20:39:05.388Z,4.67
2023-03-04T20:41:36.792Z,10.10
2023-03-04T20:44:04.401Z,3.90
2023-03-04T20:46:32.204Z,6.93
2023-03-04T20:48:58.715Z,7.37
2023-03-04T20:51:26.293Z,14.43
2023-03-04T20:53:55.140Z,9.97
2023-03-04T20:56:22.284Z,12.50
2023-03-04T20:58:48.794Z,12.77
2023-03-04T21:01:15.396Z,6.57
2023-03-04T21:03:41.848Z,9.13
2023-03-04T21:06:08.554Z,3.63
2023-03-04T21:08:35.098Z,3.47
2023-03-04T21:11:01.590Z,6.50
2023-03-04T21:13:30.482Z,8.80
2023-03-04T21:15:57.028Z,7.93
2023-03-04T21:18:23.564Z,4.10
2023-03-04T21:20:51.818Z,15.33
2023-03-04T21:23:18.819Z,3.77
2023-03-04T21:25:45.327Z,16.03
2023-03-04T21:28:11.936Z,3.37
2023-03-04T21:30:38.667Z,8.20
2023-03-04T21:33:05.571Z,3.93
2023-03-04T21:35:33.721Z,9.40
2023-03-04T21:38:00.278Z,11.20
2023-03-04T21:40:26.746Z,3.53
2023-03-04T21:42:53.279Z,4.00
2023-03-04T21:45:19.795Z,6.73
2023-03-04T21:47:46.315Z,4.57
2023-03-04T21:50:12.813Z,12.30
2023-03-04T21:52:39.335Z,9.50
2023-03-04T21:55:05.825Z,13.90
2023-03-04T21:57:33.174Z,3.27
2023-03-04T21:59:59.689Z,3.13
2023-03-04T22:02:26.328Z,4.90
2023-03-04T22:04:53.715Z,4.90
2023-03-04T22:07:20.309Z,5.53
2023-03-04T22:09:46.919Z,10.53
2023-03-04T22:12:14.731Z,13.23
2023-03-04T22:14:41.668Z,7.97
2023-03-04T22:17:08.308Z,9.23
2023-03-04T22:19:34.834Z,11.37
2023-03-04T22:22:01.364Z,6.43
2023-03-04T22:24:28.219Z,5.10
2023-03-04T22:26:56.691Z,3.40
2023-03-04T22:29:23.185Z,6.67
2023-03-04T22:31:49.702Z,5.77
2023-03-04T22:34:16.419Z,5.60
2023-03-04T22:36:42.961Z,6.73
2023-03-04T22:39:09.502Z,4.67
2023-03-04T22:41:36.010Z,3.37
2023-03-04T22:44:02.605Z,5.03
2023-03-04T22:46:29.334Z,2.43
2023-03-04T22:48:55.871Z,6.80
2023-03-04T22:51:22.395Z,15.53
2023-03-04T22:53:48.924Z,4.97
2023-03-04T22:56:15.490Z,9.90
2023-03-04T22:58:42.071Z,8.10
2023-03-04T23:01:08.688Z,9.90
2023-03-04T23:03:35.272Z,4.60
2023-03-04T23:06:01.940Z,4.73
2023-03-04T23:08:28.452Z,4.97
2023-03-04T23:10:55.077Z,3.97
2023-03-04T23:13:21.578Z,5.47
2023-03-04T23:15:48.068Z,3.80
2023-03-04T23:18:14.664Z,13.20
2023-03-04T23:20:43.186Z,10.33
2023-03-04T23:23:09.756Z,2.63
2023-03-04T23:25:39.455Z,2.93
2023-03-04T23:28:05.936Z,9.97
2023-03-04T23:30:35.184Z,1.73
2023-03-04T23:33:01.697Z,1.40
2023-03-04T23:35:28.228Z,3.07
2023-03-04T23:37:54.762Z,5.80
2023-03-04T23:40:21.260Z,13.70
2023-03-04T23:42:47.757Z,6.43
2023-03-04T23:45:14.257Z,6.90
2023-03-04T23:47:40.801Z,3.70
2023-03-04T23:50:08.780Z,6.77
2023-03-04T23:52:35.379Z,3.00
2023-03-04T23:55:01.870Z,4.10
2023-03-04T23:57:28.446Z,2.87
2023-03-04T23:59:54.951Z,4.23
